sensor_id;sensor_type;location;lat;lon;timestamp;P1;durP1;ratioP1;P2;durP2;ratioP2
65375;SDS011;51976;47.332;9.404;2023-09-07T00:01:42;5.68;;;4.18;;
65375;SDS011;51976;47.332;9.404;2023-09-07T00:04:08;5.00;;;3.80;;
65375;SDS011;51976;47.332;9.404;2023-09-07T00:06:33;6.15;;;3.78;;
65375;SDS011;51976;47.332;9.404;2023-09-07T00:08:59;4.20;;;3.38;;
65375;SDS011;51976;47.332;9.404;2023-09-07T00:11:25;6.82;;;3.97;;
65375;SDS011;51976;47.332;9.404;2023-09-07T00:13:50;4.85;;;3.67;;
65375;SDS011;51976;47.332;9.404;2023-09-07T00:16:16;4.45;;;4.03;;
65375;SDS011;51976;47.332;9.404;2023-09-07T00:18:41;6.00;;;3.45;;
65375;SDS011;51976;47.332;9.404;2023-09-07T00:21:07;5.45;;;3.92;;
65375;SDS011;51976;47.332;9.404;2023-09-07T00:23:32;5.00;;;3.53;;
65375;SDS011;51976;47.332;9.404;2023-09-07T00:25:57;5.85;;;3.92;;
65375;SDS011;51976;47.332;9.404;2023-09-07T00:28:23;6.20;;;4.10;;
65375;SDS011;51976;47.332;9.404;2023-09-07T00:30:48;6.55;;;3.80;;
65375;SDS011;51976;47.332;9.404;2023-09-07T00:33:13;5.80;;;3.60;;
65375;SDS011;51976;47.332;9.404;2023-09-07T00:35:39;5.93;;;3.83;;
65375;SDS011;51976;47.332;9.404;2023-09-07T00:38:04;4.25;;;3.70;;
65375;SDS011;51976;47.332;9.404;2023-09-07T00:40:30;4.20;;;3.40;;
65375;SDS011;51976;47.332;9.404;2023-09-07T00:42:55;4.68;;;3.85;;
65375;SDS011;51976;47.332;9.404;2023-09-07T00:45:21;5.95;;;3.95;;
65375;SDS011;51976;47.332;9.404;2023-09-07T00:47:46;5.43;;;3.70;;
65375;SDS011;51976;47.332;9.404;2023-09-07T00:50:12;5.68;;;4.68;;
65375;SDS011;51976;47.332;9.404;2023-09-07T00:52:39;5.30;;;3.63;;
65375;SDS011;51976;47.332;9.404;2023-09-07T00:55:07;4.65;;;3.60;;
65375;SDS011;51976;47.332;9.404;2023-09-07T00:57:34;4.40;;;3.60;;
65375;SDS011;51976;47.332;9.404;2023-09-07T01:00:00;5.43;;;3.90;;
65375;SDS011;51976;47.332;9.404;2023-09-07T01:02:28;5.03;;;3.67;;
65375;SDS011;51976;47.332;9.404;2023-09-07T01:04:54;4.70;;;3.55;;
65375;SDS011;51976;47.332;9.404;2023-09-07T01:07:20;5.85;;;3.50;;
65375;SDS011;51976;47.332;9.404;2023-09-07T01:09:54;4.90;;;3.38;;
65375;SDS011;51976;47.332;9.404;2023-09-07T01:12:22;5.38;;;4.00;;
65375;SDS011;51976;47.332;9.404;2023-09-07T01:14:48;4.80;;;3.60;;
65375;SDS011;51976;47.332;9.404;2023-09-07T01:17:14;4.40;;;3.92;;
65375;SDS011;51976;47.332;9.404;2023-09-07T01:19:39;4.28;;;3.45;;
65375;SDS011;51976;47.332;9.404;2023-09-07T01:22:08;3.92;;;3.30;;
65375;SDS011;51976;47.332;9.404;2023-09-07T01:24:34;4.78;;;3.38;;
65375;SDS011;51976;47.332;9.404;2023-09-07T01:27:02;4.78;;;3.70;;
65375;SDS011;51976;47.332;9.404;2023-09-07T01:29:28;4.38;;;3.55;;
65375;SDS011;51976;47.332;9.404;2023-09-07T01:31:54;4.70;;;4.03;;
65375;SDS011;51976;47.332;9.404;2023-09-07T01:34:20;4.68;;;3.90;;
65375;SDS011;51976;47.332;9.404;2023-09-07T01:36:46;7.00;;;4.13;;
65375;SDS011;51976;47.332;9.404;2023-09-07T01:39:11;4.55;;;3.72;;
65375;SDS011;51976;47.332;9.404;2023-09-07T01:41:36;8.52;;;3.95;;
65375;SDS011;51976;47.332;9.404;2023-09-07T01:44:02;3.75;;;3.20;;
65375;SDS011;51976;47.332;9.404;2023-09-07T01:46:27;6.05;;;3.65;;
65375;SDS011;51976;47.332;9.404;2023-09-07T01:48:53;3.58;;;3.22;;
65375;SDS011;51976;47.332;9.404;2023-09-07T01:51:18;6.75;;;3.05;;
65375;SDS011;51976;47.332;9.404;2023-09-07T01:53:46;5.28;;;3.65;;
65375;SDS011;51976;47.332;9.404;2023-09-07T01:56:12;5.60;;;3.63;;
65375;SDS011;51976;47.332;9.404;2023-09-07T01:58:38;6.20;;;3.38;;
65375;SDS011;51976;47.332;9.404;2023-09-07T02:01:03;4.75;;;3.50;;
65375;SDS011;51976;47.332;9.404;2023-09-07T02:03:29;4.30;;;3.42;;
65375;SDS011;51976;47.332;9.404;2023-09-07T02:05:54;3.90;;;3.20;;
65375;SDS011;51976;47.332;9.404;2023-09-07T02:08:20;5.10;;;3.30;;
65375;SDS011;51976;47.332;9.404;2023-09-07T02:10:46;4.35;;;3.60;;
65375;SDS011;51976;47.332;9.404;2023-09-07T02:13:11;3.97;;;3.30;;
65375;SDS011;51976;47.332;9.404;2023-09-07T02:15:37;4.40;;;3.20;;
65375;SDS011;51976;47.332;9.404;2023-09-07T02:18:03;3.83;;;2.97;;
65375;SDS011;51976;47.332;9.404;2023-09-07T02:20:30;3.97;;;3.05;;
65375;SDS011;51976;47.332;9.404;2023-09-07T02:22:56;5.78;;;3.47;;
65375;SDS011;51976;47.332;9.404;2023-09-07T02:25:22;3.97;;;3.58;;
65375;SDS011;51976;47.332;9.404;2023-09-07T02:27:47;3.35;;;2.95;;
65375;SDS011;51976;47.332;9.404;2023-09-07T02:30:12;4.22;;;3.20;;
65375;SDS011;51976;47.332;9.404;2023-09-07T02:32:38;4.30;;;3.67;;
65375;SDS011;51976;47.332;9.404;2023-09-07T02:35:03;5.57;;;3.17;;
65375;SDS011;51976;47.332;9.404;2023-09-07T02:37:29;4.72;;;3.78;;
65375;SDS011;51976;47.332;9.404;2023-09-07T02:39:54;4.80;;;3.92;;
65375;SDS011;51976;47.332;9.404;2023-09-07T02:42:20;4.80;;;3.60;;
65375;SDS011;51976;47.332;9.404;2023-09-07T02:44:45;4.47;;;3.38;;
65375;SDS011;51976;47.332;9.404;2023-09-07T02:47:11;3.72;;;3.35;;
65375;SDS011;51976;47.332;9.404;2023-09-07T02:49:36;5.97;;;4.03;;
65375;SDS011;51976;47.332;9.404;2023-09-07T02:52:01;4.65;;;3.50;;
65375;SDS011;51976;47.332;9.404;2023-09-07T02:54:27;4.35;;;3.60;;
65375;SDS011;51976;47.332;9.404;2023-09-07T02:56:52;8.88;;;4.03;;
65375;SDS011;51976;47.332;9.404;2023-09-07T02:59:18;4.97;;;3.15;;
65375;SDS011;51976;47.332;9.404;2023-09-07T03:01:43;4.55;;;3.35;;
65375;SDS011;51976;47.332;9.404;2023-09-07T03:04:08;4.57;;;3.75;;
65375;SDS011;51976;47.332;9.404;2023-09-07T03:06:34;5.18;;;3.70;;
65375;SDS011;51976;47.332;9.404;2023-09-07T03:08:59;3.72;;;3.33;;
65375;SDS011;51976;47.332;9.404;2023-09-07T03:11:25;4.22;;;3.53;;
65375;SDS011;51976;47.332;9.404;2023-09-07T03:13:50;4.35;;;3.38;;
65375;SDS011;51976;47.332;9.404;2023-09-07T03:16:17;4.53;;;3.40;;
65375;SDS011;51976;47.332;9.404;2023-09-07T03:18:42;3.92;;;3.10;;
65375;SDS011;51976;47.332;9.404;2023-09-07T03:21:08;3.83;;;3.20;;
65375;SDS011;51976;47.332;9.404;2023-09-07T03:23:33;4.07;;;3.25;;
65375;SDS011;51976;47.332;9.404;2023-09-07T03:25:59;4.90;;;3.28;;
65375;SDS011;51976;47.332;9.404;2023-09-07T03:28:25;4.18;;;3.20;;
65375;SDS011;51976;47.332;9.404;2023-09-07T03:30:51;6.13;;;3.63;;
65375;SDS011;51976;47.332;9.404;2023-09-07T03:33:18;4.78;;;3.65;;
65375;SDS011;51976;47.332;9.404;2023-09-07T03:35:44;5.30;;;3.65;;
65375;SDS011;51976;47.332;9.404;2023-09-07T03:38:10;3.95;;;3.55;;
65375;SDS011;51976;47.332;9.404;2023-09-07T03:40:35;3.53;;;3.17;;
65375;SDS011;51976;47.332;9.404;2023-09-07T03:43:00;4.45;;;3.63;;
65375;SDS011;51976;47.332;9.404;2023-09-07T03:45:26;4.55;;;3.63;;
65375;SDS011;51976;47.332;9.404;2023-09-07T03:47:52;3.88;;;3.47;;
65375;SDS011;51976;47.332;9.404;2023-09-07T03:50:18;7.07;;;3.80;;
65375;SDS011;51976;47.332;9.404;2023-09-07T03:52:43;7.15;;;3.90;;
65375;SDS011;51976;47.332;9.404;2023-09-07T03:55:08;7.07;;;3.88;;
65375;SDS011;51976;47.332;9.404;2023-09-07T03:57:34;7.80;;;4.30;;
65375;SDS011;51976;47.332;9.404;2023-09-07T03:59:59;5.82;;;4.53;;
65375;SDS011;51976;47.332;9.404;2023-09-07T04:02:25;8.20;;;5.55;;
65375;SDS011;51976;47.332;9.404;2023-09-07T04:04:51;5.32;;;4.00;;
65375;SDS011;51976;47.332;9.404;2023-09-07T04:07:18;6.53;;;4.68;;
65375;SDS011;51976;47.332;9.404;2023-09-07T04:09:44;7.28;;;4.53;;
65375;SDS011;51976;47.332;9.404;2023-09-07T04:12:10;4.85;;;3.85;;
65375;SDS011;51976;47.332;9.404;2023-09-07T04:14:35;4.60;;;3.70;;
65375;SDS011;51976;47.332;9.404;2023-09-07T04:17:01;5.22;;;3.40;;
65375;SDS011;51976;47.332;9.404;2023-09-07T04:19:27;5.13;;;3.80;;
65375;SDS011;51976;47.332;9.404;2023-09-07T04:21:52;5.38;;;3.70;;
65375;SDS011;51976;47.332;9.404;2023-09-07T04:24:18;7.88;;;4.18;;
65375;SDS011;51976;47.332;9.404;2023-09-07T04:26:43;6.65;;;4.07;;
65375;SDS011;51976;47.332;9.404;2023-09-07T04:29:09;5.75;;;3.90;;
65375;SDS011;51976;47.332;9.404;2023-09-07T04:31:35;7.22;;;4.68;;
65375;SDS011;51976;47.332;9.404;2023-09-07T04:34:00;4.95;;;4.18;;
65375;SDS011;51976;47.332;9.404;2023-09-07T04:36:27;6.75;;;4.15;;
65375;SDS011;51976;47.332;9.404;2023-09-07T04:38:53;4.25;;;3.78;;
65375;SDS011;51976;47.332;9.404;2023-09-07T04:41:18;6.30;;;4.05;;
65375;SDS011;51976;47.332;9.404;2023-09-07T04:43:44;5.60;;;3.78;;
65375;SDS011;51976;47.332;9.404;2023-09-07T04:46:10;4.60;;;3.60;;
65375;SDS011;51976;47.332;9.404;2023-09-07T04:48:36;4.30;;;3.65;;
65375;SDS011;51976;47.332;9.404;2023-09-07T04:51:01;5.60;;;3.75;;
65375;SDS011;51976;47.332;9.404;2023-09-07T04:53:32;4.47;;;3.58;;
65375;SDS011;51976;47.332;9.404;2023-09-07T04:56:00;4.43;;;3.30;;
65375;SDS011;51976;47.332;9.404;2023-09-07T04:58:26;8.18;;;5.32;;
65375;SDS011;51976;47.332;9.404;2023-09-07T05:00:51;8.05;;;5.05;;
65375;SDS011;51976;47.332;9.404;2023-09-07T05:03:17;8.60;;;4.20;;
65375;SDS011;51976;47.332;9.404;2023-09-07T05:05:43;6.38;;;4.10;;
65375;SDS011;51976;47.332;9.404;2023-09-07T05:08:11;6.97;;;4.40;;
65375;SDS011;51976;47.332;9.404;2023-09-07T05:10:37;5.22;;;3.75;;
65375;SDS011;51976;47.332;9.404;2023-09-07T05:13:03;13.77;;;4.68;;
65375;SDS011;51976;47.332;9.404;2023-09-07T05:15:29;6.55;;;4.75;;
65375;SDS011;51976;47.332;9.404;2023-09-07T05:17:54;6.80;;;4.40;;
65375;SDS011;51976;47.332;9.404;2023-09-07T05:20:20;7.40;;;4.55;;
65375;SDS011;51976;47.332;9.404;2023-09-07T05:22:46;5.57;;;4.25;;
65375;SDS011;51976;47.332;9.404;2023-09-07T05:25:11;7.43;;;4.10;;
65375;SDS011;51976;47.332;9.404;2023-09-07T05:27:37;8.60;;;3.72;;
65375;SDS011;51976;47.332;9.404;2023-09-07T05:30:03;6.85;;;3.75;;
65375;SDS011;51976;47.332;9.404;2023-09-07T05:32:29;4.65;;;3.65;;
65375;SDS011;51976;47.332;9.404;2023-09-07T05:34:55;9.55;;;3.90;;
65375;SDS011;51976;47.332;9.404;2023-09-07T05:37:21;8.13;;;4.32;;
65375;SDS011;51976;47.332;9.404;2023-09-07T05:39:46;6.47;;;4.32;;
65375;SDS011;51976;47.332;9.404;2023-09-07T05:42:12;6.07;;;3.85;;
65375;SDS011;51976;47.332;9.404;2023-09-07T05:44:38;5.75;;;4.18;;
65375;SDS011;51976;47.332;9.404;2023-09-07T05:47:04;10.40;;;4.28;;
65375;SDS011;51976;47.332;9.404;2023-09-07T05:49:29;8.27;;;4.40;;
65375;SDS011;51976;47.332;9.404;2023-09-07T05:51:55;9.20;;;4.28;;
65375;SDS011;51976;47.332;9.404;2023-09-07T05:54:23;7.25;;;4.38;;
65375;SDS011;51976;47.332;9.404;2023-09-07T05:56:55;12.82;;;3.72;;
65375;SDS011;51976;47.332;9.404;2023-09-07T05:59:23;10.40;;;4.57;;
65375;SDS011;51976;47.332;9.404;2023-09-07T06:01:49;8.85;;;4.68;;
65375;SDS011;51976;47.332;9.404;2023-09-07T06:04:14;13.20;;;4.68;;
65375;SDS011;51976;47.332;9.404;2023-09-07T06:06:40;4.88;;;4.18;;
65375;SDS011;51976;47.332;9.404;2023-09-07T06:09:05;6.78;;;4.45;;
65375;SDS011;51976;47.332;9.404;2023-09-07T06:11:32;8.15;;;4.47;;
65375;SDS011;51976;47.332;9.404;2023-09-07T06:13:58;7.40;;;5.05;;
65375;SDS011;51976;47.332;9.404;2023-09-07T06:16:28;11.52;;;4.70;;
65375;SDS011;51976;47.332;9.404;2023-09-07T06:18:53;9.40;;;4.30;;
65375;SDS011;51976;47.332;9.404;2023-09-07T06:21:19;7.45;;;4.15;;
65375;SDS011;51976;47.332;9.404;2023-09-07T06:23:44;6.00;;;3.92;;
65375;SDS011;51976;47.332;9.404;2023-09-07T06:26:10;5.90;;;4.53;;
65375;SDS011;51976;47.332;9.404;2023-09-07T06:28:35;5.68;;;4.45;;
65375;SDS011;51976;47.332;9.404;2023-09-07T06:31:01;7.90;;;4.40;;
65375;SDS011;51976;47.332;9.404;2023-09-07T06:33:27;5.88;;;4.30;;
65375;SDS011;51976;47.332;9.404;2023-09-07T06:35:53;6.00;;;4.00;;
65375;SDS011;51976;47.332;9.404;2023-09-07T06:38:22;8.32;;;4.10;;
65375;SDS011;51976;47.332;9.404;2023-09-07T06:40:48;7.68;;;4.47;;
65375;SDS011;51976;47.332;9.404;2023-09-07T06:43:14;6.30;;;3.95;;
65375;SDS011;51976;47.332;9.404;2023-09-07T06:45:40;5.22;;;4.40;;
65375;SDS011;51976;47.332;9.404;2023-09-07T06:48:06;6.10;;;3.83;;
65375;SDS011;51976;47.332;9.404;2023-09-07T06:50:32;4.50;;;3.72;;
65375;SDS011;51976;47.332;9.404;2023-09-07T06:52:58;5.80;;;3.58;;
65375;SDS011;51976;47.332;9.404;2023-09-07T06:55:24;8.15;;;4.15;;
65375;SDS011;51976;47.332;9.404;2023-09-07T06:57:49;7.72;;;4.32;;
65375;SDS011;51976;47.332;9.404;2023-09-07T07:00:15;6.35;;;3.72;;
65375;SDS011;51976;47.332;9.404;2023-09-07T07:02:41;8.95;;;4.13;;
65375;SDS011;51976;47.332;9.404;2023-09-07T07:05:08;9.95;;;4.05;;
65375;SDS011;51976;47.332;9.404;2023-09-07T07:07:33;4.57;;;3.47;;
65375;SDS011;51976;47.332;9.404;2023-09-07T07:10:06;5.93;;;4.20;;
65375;SDS011;51976;47.332;9.404;2023-09-07T07:12:32;6.70;;;3.88;;
65375;SDS011;51976;47.332;9.404;2023-09-07T07:15:03;5.78;;;3.78;;
65375;SDS011;51976;47.332;9.404;2023-09-07T07:17:30;7.18;;;3.80;;
65375;SDS011;51976;47.332;9.404;2023-09-07T07:19:56;6.15;;;3.53;;
65375;SDS011;51976;47.332;9.404;2023-09-07T07:22:21;5.55;;;3.85;;
65375;SDS011;51976;47.332;9.404;2023-09-07T07:24:47;7.00;;;3.50;;
65375;SDS011;51976;47.332;9.404;2023-09-07T07:27:13;5.50;;;3.30;;
65375;SDS011;51976;47.332;9.404;2023-09-07T07:29:41;5.57;;;3.88;;
65375;SDS011;51976;47.332;9.404;2023-09-07T07:32:06;5.68;;;5.00;;
65375;SDS011;51976;47.332;9.404;2023-09-07T07:34:32;6.00;;;5.18;;
65375;SDS011;51976;47.332;9.404;2023-09-07T07:37:00;13.25;;;7.53;;
65375;SDS011;51976;47.332;9.404;2023-09-07T07:39:26;7.97;;;6.45;;
65375;SDS011;51976;47.332;9.404;2023-09-07T07:41:52;8.43;;;5.93;;
65375;SDS011;51976;47.332;9.404;2023-09-07T07:44:17;9.35;;;8.00;;
65375;SDS011;51976;47.332;9.404;2023-09-07T07:46:43;11.30;;;9.40;;
65375;SDS011;51976;47.332;9.404;2023-09-07T07:49:09;10.35;;;8.70;;
65375;SDS011;51976;47.332;9.404;2023-09-07T07:51:35;9.20;;;7.18;;
65375;SDS011;51976;47.332;9.404;2023-09-07T07:54:00;13.63;;;10.63;;
65375;SDS011;51976;47.332;9.404;2023-09-07T07:56:25;13.05;;;9.63;;
65375;SDS011;51976;47.332;9.404;2023-09-07T07:58:51;11.30;;;9.07;;
65375;SDS011;51976;47.332;9.404;2023-09-07T08:01:17;9.68;;;8.20;;
65375;SDS011;51976;47.332;9.404;2023-09-07T08:03:43;10.65;;;6.63;;
65375;SDS011;51976;47.332;9.404;2023-09-07T08:06:10;11.15;;;7.05;;
65375;SDS011;51976;47.332;9.404;2023-09-07T08:08:36;10.45;;;6.03;;
65375;SDS011;51976;47.332;9.404;2023-09-07T08:11:03;13.20;;;6.00;;
65375;SDS011;51976;47.332;9.404;2023-09-07T08:13:33;8.32;;;5.50;;
65375;SDS011;51976;47.332;9.404;2023-09-07T08:16:00;13.82;;;9.52;;
65375;SDS011;51976;47.332;9.404;2023-09-07T08:18:27;8.30;;;4.72;;
65375;SDS011;51976;47.332;9.404;2023-09-07T08:20:53;7.05;;;6.18;;
65375;SDS011;51976;47.332;9.404;2023-09-07T08:23:21;9.30;;;5.93;;
65375;SDS011;51976;47.332;9.404;2023-09-07T08:25:50;11.82;;;6.28;;
65375;SDS011;51976;47.332;9.404;2023-09-07T08:28:18;8.88;;;5.47;;
65375;SDS011;51976;47.332;9.404;2023-09-07T08:30:44;10.13;;;6.35;;
65375;SDS011;51976;47.332;9.404;2023-09-07T08:33:10;11.77;;;6.75;;
65375;SDS011;51976;47.332;9.404;2023-09-07T08:35:36;6.22;;;5.00;;
65375;SDS011;51976;47.332;9.404;2023-09-07T08:38:10;10.30;;;6.47;;
65375;SDS011;51976;47.332;9.404;2023-09-07T08:40:36;7.03;;;4.45;;
65375;SDS011;51976;47.332;9.404;2023-09-07T08:43:05;6.53;;;5.38;;
65375;SDS011;51976;47.332;9.404;2023-09-07T08:45:36;10.02;;;6.85;;
65375;SDS011;51976;47.332;9.404;2023-09-07T08:48:07;10.20;;;6.30;;
65375;SDS011;51976;47.332;9.404;2023-09-07T08:50:35;6.32;;;4.82;;
65375;SDS011;51976;47.332;9.404;2023-09-07T08:53:03;7.38;;;5.40;;
65375;SDS011;51976;47.332;9.404;2023-09-07T08:55:29;6.40;;;4.40;;
65375;SDS011;51976;47.332;9.404;2023-09-07T08:57:56;8.45;;;6.28;;
65375;SDS011;51976;47.332;9.404;2023-09-07T09:00:23;8.90;;;6.35;;
65375;SDS011;51976;47.332;9.404;2023-09-07T09:02:48;7.13;;;5.55;;
65375;SDS011;51976;47.332;9.404;2023-09-07T09:05:14;8.00;;;5.03;;
65375;SDS011;51976;47.332;9.404;2023-09-07T09:07:40;5.82;;;4.50;;
65375;SDS011;51976;47.332;9.404;2023-09-07T09:10:06;7.75;;;4.55;;
65375;SDS011;51976;47.332;9.404;2023-09-07T09:12:33;6.75;;;5.45;;
65375;SDS011;51976;47.332;9.404;2023-09-07T09:14:59;8.57;;;6.40;;
65375;SDS011;51976;47.332;9.404;2023-09-07T09:17:28;6.38;;;5.35;;
65375;SDS011;51976;47.332;9.404;2023-09-07T09:19:54;5.57;;;4.97;;
65375;SDS011;51976;47.332;9.404;2023-09-07T09:22:20;8.80;;;5.20;;
65375;SDS011;51976;47.332;9.404;2023-09-07T09:24:49;7.00;;;5.22;;
65375;SDS011;51976;47.332;9.404;2023-09-07T09:27:15;5.00;;;4.47;;
65375;SDS011;51976;47.332;9.404;2023-09-07T09:29:41;8.98;;;4.15;;
65375;SDS011;51976;47.332;9.404;2023-09-07T09:32:07;7.30;;;5.13;;
65375;SDS011;51976;47.332;9.404;2023-09-07T09:34:35;6.65;;;5.07;;
65375;SDS011;51976;47.332;9.404;2023-09-07T09:37:02;5.97;;;4.80;;
65375;SDS011;51976;47.332;9.404;2023-09-07T09:39:28;5.72;;;4.97;;
65375;SDS011;51976;47.332;9.404;2023-09-07T09:41:55;5.78;;;4.95;;
65375;SDS011;51976;47.332;9.404;2023-09-07T09:44:22;7.25;;;4.55;;
65375;SDS011;51976;47.332;9.404;2023-09-07T09:46:53;6.95;;;4.45;;
65375;SDS011;51976;47.332;9.404;2023-09-07T09:49:21;6.68;;;4.55;;
65375;SDS011;51976;47.332;9.404;2023-09-07T09:51:50;9.43;;;5.00;;
65375;SDS011;51976;47.332;9.404;2023-09-07T09:54:16;5.63;;;4.45;;
65375;SDS011;51976;47.332;9.404;2023-09-07T09:56:43;5.93;;;4.85;;
65375;SDS011;51976;47.332;9.404;2023-09-07T09:59:09;6.78;;;4.75;;
65375;SDS011;51976;47.332;9.404;2023-09-07T10:01:39;7.13;;;4.60;;
65375;SDS011;51976;47.332;9.404;2023-09-07T10:04:09;8.07;;;4.60;;
65375;SDS011;51976;47.332;9.404;2023-09-07T10:06:36;5.30;;;4.40;;
65375;SDS011;51976;47.332;9.404;2023-09-07T10:09:04;6.82;;;5.13;;
65375;SDS011;51976;47.332;9.404;2023-09-07T10:11:38;6.53;;;3.88;;
65375;SDS011;51976;47.332;9.404;2023-09-07T10:14:04;5.60;;;4.95;;
65375;SDS011;51976;47.332;9.404;2023-09-07T10:16:45;4.68;;;4.10;;
65375;SDS011;51976;47.332;9.404;2023-09-07T10:19:16;7.38;;;4.75;;
65375;SDS011;51976;47.332;9.404;2023-09-07T10:21:42;5.50;;;4.85;;
65375;SDS011;51976;47.332;9.404;2023-09-07T10:24:08;8.30;;;4.50;;
65375;SDS011;51976;47.332;9.404;2023-09-07T10:26:34;7.35;;;5.00;;
65375;SDS011;51976;47.332;9.404;2023-09-07T10:29:00;6.97;;;5.68;;
65375;SDS011;51976;47.332;9.404;2023-09-07T10:31:28;6.97;;;5.28;;
65375;SDS011;51976;47.332;9.404;2023-09-07T10:33:55;9.35;;;5.00;;
65375;SDS011;51976;47.332;9.404;2023-09-07T10:36:22;5.63;;;4.75;;
65375;SDS011;51976;47.332;9.404;2023-09-07T10:38:49;6.05;;;4.40;;
65375;SDS011;51976;47.332;9.404;2023-09-07T10:41:18;7.55;;;5.10;;
65375;SDS011;51976;47.332;9.404;2023-09-07T10:43:47;4.90;;;4.50;;
65375;SDS011;51976;47.332;9.404;2023-09-07T10:46:18;5.15;;;4.60;;
65375;SDS011;51976;47.332;9.404;2023-09-07T10:48:45;10.27;;;4.60;;
65375;SDS011;51976;47.332;9.404;2023-09-07T10:51:13;6.75;;;5.20;;
65375;SDS011;51976;47.332;9.404;2023-09-07T10:53:39;8.25;;;5.53;;
65375;SDS011;51976;47.332;9.404;2023-09-07T10:56:04;8.52;;;5.00;;
65375;SDS011;51976;47.332;9.404;2023-09-07T10:58:34;6.32;;;5.10;;
65375;SDS011;51976;47.332;9.404;2023-09-07T11:01:01;9.27;;;5.75;;
65375;SDS011;51976;47.332;9.404;2023-09-07T11:03:30;6.18;;;4.80;;
65375;SDS011;51976;47.332;9.404;2023-09-07T11:05:56;6.47;;;5.35;;
65375;SDS011;51976;47.332;9.404;2023-09-07T11:08:25;7.65;;;5.70;;
65375;SDS011;51976;47.332;9.404;2023-09-07T11:10:54;6.00;;;4.80;;
65375;SDS011;51976;47.332;9.404;2023-09-07T11:13:19;6.53;;;5.07;;
65375;SDS011;51976;47.332;9.404;2023-09-07T11:15:46;8.73;;;4.75;;
65375;SDS011;51976;47.332;9.404;2023-09-07T11:18:11;6.53;;;5.28;;
65375;SDS011;51976;47.332;9.404;2023-09-07T11:20:38;6.72;;;5.35;;
65375;SDS011;51976;47.332;9.404;2023-09-07T11:23:04;9.80;;;5.28;;
65375;SDS011;51976;47.332;9.404;2023-09-07T11:25:37;9.25;;;5.38;;
65375;SDS011;51976;47.332;9.404;2023-09-07T11:28:04;6.00;;;5.18;;
65375;SDS011;51976;47.332;9.404;2023-09-07T11:30:31;7.30;;;5.43;;
65375;SDS011;51976;47.332;9.404;2023-09-07T11:33:05;7.53;;;5.10;;
65375;SDS011;51976;47.332;9.404;2023-09-07T11:35:33;7.38;;;4.70;;
65375;SDS011;51976;47.332;9.404;2023-09-07T11:38:00;6.22;;;4.78;;
65375;SDS011;51976;47.332;9.404;2023-09-07T11:40:29;5.75;;;4.97;;
65375;SDS011;51976;47.332;9.404;2023-09-07T11:42:55;13.07;;;5.10;;
65375;SDS011;51976;47.332;9.404;2023-09-07T11:45:21;6.60;;;5.03;;
65375;SDS011;51976;47.332;9.404;2023-09-07T11:47:46;6.40;;;5.13;;
65375;SDS011;51976;47.332;9.404;2023-09-07T11:50:12;6.15;;;4.53;;
65375;SDS011;51976;47.332;9.404;2023-09-07T11:52:38;6.32;;;5.00;;
65375;SDS011;51976;47.332;9.404;2023-09-07T11:55:03;7.38;;;4.90;;
65375;SDS011;51976;47.332;9.404;2023-09-07T11:57:29;7.35;;;5.72;;
65375;SDS011;51976;47.332;9.404;2023-09-07T11:59:55;7.07;;;5.75;;
65375;SDS011;51976;47.332;9.404;2023-09-07T12:02:22;8.13;;;5.50;;
65375;SDS011;51976;47.332;9.404;2023-09-07T12:04:47;9.48;;;5.45;;
65375;SDS011;51976;47.332;9.404;2023-09-07T12:07:16;6.03;;;5.18;;
65375;SDS011;51976;47.332;9.404;2023-09-07T12:09:42;6.43;;;4.60;;
65375;SDS011;51976;47.332;9.404;2023-09-07T12:12:08;6.03;;;4.75;;
65375;SDS011;51976;47.332;9.404;2023-09-07T12:14:36;9.32;;;5.00;;
65375;SDS011;51976;47.332;9.404;2023-09-07T12:17:01;7.32;;;4.40;;
65375;SDS011;51976;47.332;9.404;2023-09-07T12:19:27;6.22;;;4.97;;
65375;SDS011;51976;47.332;9.404;2023-09-07T12:21:53;7.43;;;4.95;;
65375;SDS011;51976;47.332;9.404;2023-09-07T12:24:18;5.60;;;5.00;;
65375;SDS011;51976;47.332;9.404;2023-09-07T12:26:44;6.45;;;5.50;;
65375;SDS011;51976;47.332;9.404;2023-09-07T12:29:09;7.40;;;4.82;;
65375;SDS011;51976;47.332;9.404;2023-09-07T12:31:35;8.77;;;5.10;;
65375;SDS011;51976;47.332;9.404;2023-09-07T12:34:01;8.95;;;4.78;;
65375;SDS011;51976;47.332;9.404;2023-09-07T12:36:26;6.78;;;4.80;;
65375;SDS011;51976;47.332;9.404;2023-09-07T12:38:55;6.90;;;4.65;;
65375;SDS011;51976;47.332;9.404;2023-09-07T12:41:26;6.68;;;5.43;;
65375;SDS011;51976;47.332;9.404;2023-09-07T12:43:54;8.63;;;5.50;;
65375;SDS011;51976;47.332;9.404;2023-09-07T12:46:20;6.53;;;5.10;;
65375;SDS011;51976;47.332;9.404;2023-09-07T12:48:46;6.60;;;5.80;;
65375;SDS011;51976;47.332;9.404;2023-09-07T12:51:11;7.03;;;5.82;;
65375;SDS011;51976;47.332;9.404;2023-09-07T12:53:37;8.23;;;5.88;;
65375;SDS011;51976;47.332;9.404;2023-09-07T12:56:02;7.70;;;6.30;;
65375;SDS011;51976;47.332;9.404;2023-09-07T12:58:28;5.93;;;5.32;;
65375;SDS011;51976;47.332;9.404;2023-09-07T13:00:53;6.63;;;5.72;;
65375;SDS011;51976;47.332;9.404;2023-09-07T13:03:19;6.43;;;4.88;;
65375;SDS011;51976;47.332;9.404;2023-09-07T13:05:45;6.93;;;5.78;;
65375;SDS011;51976;47.332;9.404;2023-09-07T13:08:11;7.03;;;5.45;;
65375;SDS011;51976;47.332;9.404;2023-09-07T13:10:37;10.43;;;5.90;;
65375;SDS011;51976;47.332;9.404;2023-09-07T13:13:03;7.43;;;5.20;;
65375;SDS011;51976;47.332;9.404;2023-09-07T13:15:29;5.88;;;5.20;;
65375;SDS011;51976;47.332;9.404;2023-09-07T13:17:54;9.00;;;5.28;;
65375;SDS011;51976;47.332;9.404;2023-09-07T13:20:20;11.50;;;6.47;;
65375;SDS011;51976;47.332;9.404;2023-09-07T13:22:45;8.35;;;5.63;;
65375;SDS011;51976;47.332;9.404;2023-09-07T13:25:13;10.45;;;6.20;;
65375;SDS011;51976;47.332;9.404;2023-09-07T13:27:39;6.60;;;5.50;;
65375;SDS011;51976;47.332;9.404;2023-09-07T13:30:05;6.13;;;5.07;;
65375;SDS011;51976;47.332;9.404;2023-09-07T13:32:33;9.75;;;6.90;;
65375;SDS011;51976;47.332;9.404;2023-09-07T13:35:00;5.82;;;5.07;;
65375;SDS011;51976;47.332;9.404;2023-09-07T13:37:26;6.60;;;5.15;;
65375;SDS011;51976;47.332;9.404;2023-09-07T13:39:51;5.70;;;4.85;;
65375;SDS011;51976;47.332;9.404;2023-09-07T13:42:17;8.27;;;5.40;;
65375;SDS011;51976;47.332;9.404;2023-09-07T13:44:42;6.43;;;4.97;;
65375;SDS011;51976;47.332;9.404;2023-09-07T13:47:10;5.57;;;4.90;;
65375;SDS011;51976;47.332;9.404;2023-09-07T13:49:36;5.55;;;4.95;;
65375;SDS011;51976;47.332;9.404;2023-09-07T13:52:01;7.13;;;4.80;;
65375;SDS011;51976;47.332;9.404;2023-09-07T13:54:26;5.68;;;4.97;;
65375;SDS011;51976;47.332;9.404;2023-09-07T13:56:52;6.97;;;5.25;;
65375;SDS011;51976;47.332;9.404;2023-09-07T13:59:17;8.73;;;4.22;;
65375;SDS011;51976;47.332;9.404;2023-09-07T14:01:43;7.10;;;4.05;;
65375;SDS011;51976;47.332;9.404;2023-09-07T14:04:08;5.82;;;4.25;;
65375;SDS011;51976;47.332;9.404;2023-09-07T14:06:34;6.97;;;4.00;;
65375;SDS011;51976;47.332;9.404;2023-09-07T14:08:59;4.82;;;4.20;;
65375;SDS011;51976;47.332;9.404;2023-09-07T14:11:25;7.95;;;4.80;;
65375;SDS011;51976;47.332;9.404;2023-09-07T14:13:51;5.95;;;4.30;;
65375;SDS011;51976;47.332;9.404;2023-09-07T14:16:17;5.60;;;4.35;;
65375;SDS011;51976;47.332;9.404;2023-09-07T14:18:44;5.00;;;4.18;;
65375;SDS011;51976;47.332;9.404;2023-09-07T14:21:11;4.57;;;4.15;;
65375;SDS011;51976;47.332;9.404;2023-09-07T14:23:37;8.77;;;4.38;;
65375;SDS011;51976;47.332;9.404;2023-09-07T14:26:03;6.03;;;3.85;;
65375;SDS011;51976;47.332;9.404;2023-09-07T14:28:28;9.38;;;4.13;;
65375;SDS011;51976;47.332;9.404;2023-09-07T14:30:54;5.47;;;4.15;;
65375;SDS011;51976;47.332;9.404;2023-09-07T14:33:19;4.85;;;4.07;;
65375;SDS011;51976;47.332;9.404;2023-09-07T14:35:45;4.55;;;3.67;;
65375;SDS011;51976;47.332;9.404;2023-09-07T14:38:11;4.65;;;4.05;;
65375;SDS011;51976;47.332;9.404;2023-09-07T14:40:37;5.35;;;4.30;;